sensor_id;sensor_type;location;lat;lon;timestamp;temperature;humidity
29041;DHT22;16129;50.836;4.380;2022-07-29T00:00:23;22.80;67.60
29041;DHT22;16129;50.836;4.380;2022-07-29T00:02:49;22.80;67.60
29041;DHT22;16129;50.836;4.380;2022-07-29T00:05:14;22.80;67.60
29041;DHT22;16129;50.836;4.380;2022-07-29T00:07:40;22.80;67.50
29041;DHT22;16129;50.836;4.380;2022-07-29T00:10:06;22.80;68.50
29041;DHT22;16129;50.836;4.380;2022-07-29T00:12:32;22.70;67.80
29041;DHT22;16129;50.836;4.380;2022-07-29T00:14:57;22.70;67.90
29041;DHT22;16129;50.836;4.380;2022-07-29T00:17:23;22.70;67.80
29041;DHT22;16129;50.836;4.380;2022-07-29T00:19:48;22.60;67.80
29041;DHT22;16129;50.836;4.380;2022-07-29T00:22:14;22.50;68.20
29041;DHT22;16129;50.836;4.380;2022-07-29T00:24:40;22.50;68.50
29041;DHT22;16129;50.836;4.380;2022-07-29T00:27:05;22.30;68.70
29041;DHT22;16129;50.836;4.380;2022-07-29T00:29:31;22.30;68.90
29041;DHT22;16129;50.836;4.380;2022-07-29T00:31:56;22.40;69.60
29041;DHT22;16129;50.836;4.380;2022-07-29T00:34:22;22.30;68.90
29041;DHT22;16129;50.836;4.380;2022-07-29T00:37:06;22.30;69.00
29041;DHT22;16129;50.836;4.380;2022-07-29T00:39:31;22.30;69.10
29041;DHT22;16129;50.836;4.380;2022-07-29T00:41:57;22.20;69.40
29041;DHT22;16129;50.836;4.380;2022-07-29T00:44:22;22.20;69.40
29041;DHT22;16129;50.836;4.380;2022-07-29T00:46:48;22.20;69.60
29041;DHT22;16129;50.836;4.380;2022-07-29T00:49:13;22.10;69.70
29041;DHT22;16129;50.836;4.380;2022-07-29T00:51:39;22.10;69.90
29041;DHT22;16129;50.836;4.380;2022-07-29T00:54:05;22.10;70.00
29041;DHT22;16129;50.836;4.380;2022-07-29T00:56:31;22.00;70.20
29041;DHT22;16129;50.836;4.380;2022-07-29T00:58:57;21.90;70.40
29041;DHT22;16129;50.836;4.380;2022-07-29T01:01:23;21.80;70.70
29041;DHT22;16129;50.836;4.380;2022-07-29T01:03:49;21.80;70.80
29041;DHT22;16129;50.836;4.380;2022-07-29T01:06:18;21.70;71.20
29041;DHT22;16129;50.836;4.380;2022-07-29T01:08:44;21.60;71.60
29041;DHT22;16129;50.836;4.380;2022-07-29T01:11:11;21.60;71.60
29041;DHT22;16129;50.836;4.380;2022-07-29T01:13:36;21.60;71.70
29041;DHT22;16129;50.836;4.380;2022-07-29T01:16:03;21.60;72.00
29041;DHT22;16129;50.836;4.380;2022-07-29T01:18:34;21.50;72.10
29041;DHT22;16129;50.836;4.380;2022-07-29T01:23:58;21.40;72.40
29041;DHT22;16129;50.836;4.380;2022-07-29T01:31:43;21.40;72.70
29041;DHT22;16129;50.836;4.380;2022-07-29T01:34:08;21.40;72.70
29041;DHT22;16129;50.836;4.380;2022-07-29T01:36:36;21.30;72.80
29041;DHT22;16129;50.836;4.380;2022-07-29T01:39:05;21.30;73.00
29041;DHT22;16129;50.836;4.380;2022-07-29T01:41:31;21.20;73.30
29041;DHT22;16129;50.836;4.380;2022-07-29T01:43:59;21.20;73.50
29041;DHT22;16129;50.836;4.380;2022-07-29T01:46:31;21.30;73.40
29041;DHT22;16129;50.836;4.380;2022-07-29T01:49:00;21.20;73.40
29041;DHT22;16129;50.836;4.380;2022-07-29T01:51:31;21.20;73.50
29041;DHT22;16129;50.836;4.380;2022-07-29T01:54:06;21.10;73.70
29041;DHT22;16129;50.836;4.380;2022-07-29T01:56:33;21.10;73.80
29041;DHT22;16129;50.836;4.380;2022-07-29T01:59:01;21.10;73.80
29041;DHT22;16129;50.836;4.380;2022-07-29T02:01:27;20.90;74.30
29041;DHT22;16129;50.836;4.380;2022-07-29T02:03:55;20.90;74.40
29041;DHT22;16129;50.836;4.380;2022-07-29T02:06:22;20.90;74.60
29041;DHT22;16129;50.836;4.380;2022-07-29T02:08:48;20.90;74.50
29041;DHT22;16129;50.836;4.380;2022-07-29T02:11:14;21.00;74.40
29041;DHT22;16129;50.836;4.380;2022-07-29T02:13:39;20.80;74.80
29041;DHT22;16129;50.836;4.380;2022-07-29T02:16:06;20.70;75.20
29041;DHT22;16129;50.836;4.380;2022-07-29T02:18:32;20.60;75.50
29041;DHT22;16129;50.836;4.380;2022-07-29T02:20:58;20.60;75.70
29041;DHT22;16129;50.836;4.380;2022-07-29T02:23:24;20.70;75.50
29041;DHT22;16129;50.836;4.380;2022-07-29T02:25:55;20.80;75.40
29041;DHT22;16129;50.836;4.380;2022-07-29T02:28:25;20.80;75.20
29041;DHT22;16129;50.836;4.380;2022-07-29T02:30:52;20.80;75.20
29041;DHT22;16129;50.836;4.380;2022-07-29T02:33:18;20.80;75.20
29041;DHT22;16129;50.836;4.380;2022-07-29T02:35:44;20.80;75.30
29041;DHT22;16129;50.836;4.380;2022-07-29T02:38:11;20.80;75.40
29041;DHT22;16129;50.836;4.380;2022-07-29T02:40:56;20.70;75.90
29041;DHT22;16129;50.836;4.380;2022-07-29T02:43:22;20.60;75.90
29041;DHT22;16129;50.836;4.380;2022-07-29T02:45:50;20.60;76.10
29041;DHT22;16129;50.836;4.380;2022-07-29T02:48:16;20.60;75.90
29041;DHT22;16129;50.836;4.380;2022-07-29T02:50:44;20.50;76.10
29041;DHT22;16129;50.836;4.380;2022-07-29T02:53:15;20.50;76.30
29041;DHT22;16129;50.836;4.380;2022-07-29T02:55:51;20.50;76.40
29041;DHT22;16129;50.836;4.380;2022-07-29T02:58:21;20.60;76.20
29041;DHT22;16129;50.836;4.380;2022-07-29T03:00:51;20.50;76.30
29041;DHT22;16129;50.836;4.380;2022-07-29T03:03:18;20.50;76.40
29041;DHT22;16129;50.836;4.380;2022-07-29T03:05:44;20.40;76.30
29041;DHT22;16129;50.836;4.380;2022-07-29T03:08:10;20.40;76.70
29041;DHT22;16129;50.836;4.380;2022-07-29T03:10:36;20.40;76.50
29041;DHT22;16129;50.836;4.380;2022-07-29T03:13:03;20.40;76.80
29041;DHT22;16129;50.836;4.380;2022-07-29T03:15:29;20.50;77.00
29041;DHT22;16129;50.836;4.380;2022-07-29T03:17:55;20.40;76.90
29041;DHT22;16129;50.836;4.380;2022-07-29T03:20:21;20.40;76.90
29041;DHT22;16129;50.836;4.380;2022-07-29T03:22:47;20.40;76.90
29041;DHT22;16129;50.836;4.380;2022-07-29T03:25:13;20.40;76.90
29041;DHT22;16129;50.836;4.380;2022-07-29T03:27:39;20.40;76.90
29041;DHT22;16129;50.836;4.380;2022-07-29T03:30:06;20.40;77.10
29041;DHT22;16129;50.836;4.380;2022-07-29T03:32:32;20.40;77.30
29041;DHT22;16129;50.836;4.380;2022-07-29T03:34:57;20.30;77.30
29041;DHT22;16129;50.836;4.380;2022-07-29T03:37:23;20.50;77.60
29041;DHT22;16129;50.836;4.380;2022-07-29T03:39:48;20.20;77.60
29041;DHT22;16129;50.836;4.380;2022-07-29T03:42:15;20.20;77.80
29041;DHT22;16129;50.836;4.380;2022-07-29T03:44:41;20.20;77.90
29041;DHT22;16129;50.836;4.380;2022-07-29T03:47:08;20.10;78.20
29041;DHT22;16129;50.836;4.380;2022-07-29T03:49:35;20.20;78.40
29041;DHT22;16129;50.836;4.380;2022-07-29T03:52:01;20.20;78.20
29041;DHT22;16129;50.836;4.380;2022-07-29T03:54:26;20.10;78.10
29041;DHT22;16129;50.836;4.380;2022-07-29T03:56:52;20.10;78.50
29041;DHT22;16129;50.836;4.380;2022-07-29T03:59:18;20.10;78.70
29041;DHT22;16129;50.836;4.380;2022-07-29T04:01:45;20.10;78.80
29041;DHT22;16129;50.836;4.380;2022-07-29T04:04:11;20.00;79.00
29041;DHT22;16129;50.836;4.380;2022-07-29T04:06:37;20.00;79.40
29041;DHT22;16129;50.836;4.380;2022-07-29T04:09:03;19.90;79.50
29041;DHT22;16129;50.836;4.380;2022-07-29T04:11:28;19.90;79.70
29041;DHT22;16129;50.836;4.380;2022-07-29T04:13:54;20.00;79.80
29041;DHT22;16129;50.836;4.380;2022-07-29T04:16:19;20.00;79.80
29041;DHT22;16129;50.836;4.380;2022-07-29T04:18:45;19.90;80.00
29041;DHT22;16129;50.836;4.380;2022-07-29T04:21:10;19.90;80.10
29041;DHT22;16129;50.836;4.380;2022-07-29T04:23:36;19.90;80.20
29041;DHT22;16129;50.836;4.380;2022-07-29T04:26:01;19.70;80.50
29041;DHT22;16129;50.836;4.380;2022-07-29T04:28:27;19.70;80.90
29041;DHT22;16129;50.836;4.380;2022-07-29T04:30:52;19.70;81.10
29041;DHT22;16129;50.836;4.380;2022-07-29T04:33:18;19.70;81.50
29041;DHT22;16129;50.836;4.380;2022-07-29T04:35:43;19.70;81.50
29041;DHT22;16129;50.836;4.380;2022-07-29T04:38:09;19.80;81.60
29041;DHT22;16129;50.836;4.380;2022-07-29T04:40:34;19.80;81.50
29041;DHT22;16129;50.836;4.380;2022-07-29T04:43:00;19.70;81.60
29041;DHT22;16129;50.836;4.380;2022-07-29T04:45:26;19.80;81.90
29041;DHT22;16129;50.836;4.380;2022-07-29T04:47:52;19.80;81.70
29041;DHT22;16129;50.836;4.380;2022-07-29T04:50:17;19.90;81.80
29041;DHT22;16129;50.836;4.380;2022-07-29T04:52:43;19.90;81.70
29041;DHT22;16129;50.836;4.380;2022-07-29T04:55:08;19.80;81.70
29041;DHT22;16129;50.836;4.380;2022-07-29T04:57:34;19.80;82.00
29041;DHT22;16129;50.836;4.380;2022-07-29T05:00:00;19.90;81.90
29041;DHT22;16129;50.836;4.380;2022-07-29T05:02:26;19.90;82.00
29041;DHT22;16129;50.836;4.380;2022-07-29T05:04:51;19.90;81.90
29041;DHT22;16129;50.836;4.380;2022-07-29T05:07:17;19.90;82.20
29041;DHT22;16129;50.836;4.380;2022-07-29T05:09:42;19.80;82.50
29041;DHT22;16129;50.836;4.380;2022-07-29T05:12:08;19.90;82.50
29041;DHT22;16129;50.836;4.380;2022-07-29T05:14:33;19.90;82.20
29041;DHT22;16129;50.836;4.380;2022-07-29T05:16:59;20.00;82.10
29041;DHT22;16129;50.836;4.380;2022-07-29T05:19:24;20.00;82.00
29041;DHT22;16129;50.836;4.380;2022-07-29T05:21:50;20.00;81.90
29041;DHT22;16129;50.836;4.380;2022-07-29T05:24:15;20.10;81.90
29041;DHT22;16129;50.836;4.380;2022-07-29T05:26:41;20.10;82.00
29041;DHT22;16129;50.836;4.380;2022-07-29T05:29:06;20.10;82.00
29041;DHT22;16129;50.836;4.380;2022-07-29T05:31:32;20.00;82.30
29041;DHT22;16129;50.836;4.380;2022-07-29T05:33:58;20.00;82.50
29041;DHT22;16129;50.836;4.380;2022-07-29T05:36:24;20.10;82.40
29041;DHT22;16129;50.836;4.380;2022-07-29T05:38:49;20.20;82.30
29041;DHT22;16129;50.836;4.380;2022-07-29T05:41:17;20.20;82.10
29041;DHT22;16129;50.836;4.380;2022-07-29T05:43:43;20.30;82.50
29041;DHT22;16129;50.836;4.380;2022-07-29T05:46:08;20.40;81.50
29041;DHT22;16129;50.836;4.380;2022-07-29T05:48:34;20.40;81.30
29041;DHT22;16129;50.836;4.380;2022-07-29T05:50:59;20.50;81.20
29041;DHT22;16129;50.836;4.380;2022-07-29T05:53:25;20.40;81.10
29041;DHT22;16129;50.836;4.380;2022-07-29T05:55:50;20.30;81.80
29041;DHT22;16129;50.836;4.380;2022-07-29T05:58:17;20.30;82.20
29041;DHT22;16129;50.836;4.380;2022-07-29T06:00:42;20.30;82.20
29041;DHT22;16129;50.836;4.380;2022-07-29T06:03:08;20.30;82.30
29041;DHT22;16129;50.836;4.380;2022-07-29T06:05:33;20.30;82.40
29041;DHT22;16129;50.836;4.380;2022-07-29T06:07:59;20.30;82.40
29041;DHT22;16129;50.836;4.380;2022-07-29T06:10:24;20.40;82.40
29041;DHT22;16129;50.836;4.380;2022-07-29T06:12:50;20.40;82.40
29041;DHT22;16129;50.836;4.380;2022-07-29T06:15:15;20.50;82.20
29041;DHT22;16129;50.836;4.380;2022-07-29T06:17:41;20.70;81.70
29041;DHT22;16129;50.836;4.380;2022-07-29T06:20:06;20.80;81.50
29041;DHT22;16129;50.836;4.380;2022-07-29T06:22:32;20.90;81.20
29041;DHT22;16129;50.836;4.380;2022-07-29T06:24:57;21.00;80.90
29041;DHT22;16129;50.836;4.380;2022-07-29T06:27:23;21.10;80.70
29041;DHT22;16129;50.836;4.380;2022-07-29T06:29:48;21.10;80.70
29041;DHT22;16129;50.836;4.380;2022-07-29T06:32:14;21.20;80.50
29041;DHT22;16129;50.836;4.380;2022-07-29T06:34:39;21.30;80.30
29041;DHT22;16129;50.836;4.380;2022-07-29T06:37:05;21.20;80.70
29041;DHT22;16129;50.836;4.380;2022-07-29T06:39:31;21.10;81.30
29041;DHT22;16129;50.836;4.380;2022-07-29T06:41:57;21.00;81.40
29041;DHT22;16129;50.836;4.380;2022-07-29T06:44:22;21.10;81.40
29041;DHT22;16129;50.836;4.380;2022-07-29T06:46:48;21.30;80.70
29041;DHT22;16129;50.836;4.380;2022-07-29T06:49:15;21.50;80.70
29041;DHT22;16129;50.836;4.380;2022-07-29T06:51:40;21.60;79.90
29041;DHT22;16129;50.836;4.380;2022-07-29T06:54:06;21.80;79.90
29041;DHT22;16129;50.836;4.380;2022-07-29T06:56:32;22.00;79.10
29041;DHT22;16129;50.836;4.380;2022-07-29T06:58:58;22.30;78.70
29041;DHT22;16129;50.836;4.380;2022-07-29T07:01:23;22.50;77.90
29041;DHT22;16129;50.836;4.380;2022-07-29T07:03:49;22.60;77.40
29041;DHT22;16129;50.836;4.380;2022-07-29T07:06:14;22.80;76.10
29041;DHT22;16129;50.836;4.380;2022-07-29T07:08:40;23.00;76.00
29041;DHT22;16129;50.836;4.380;2022-07-29T07:11:07;23.10;76.40
29041;DHT22;16129;50.836;4.380;2022-07-29T07:13:35;23.10;75.10
29041;DHT22;16129;50.836;4.380;2022-07-29T07:16:01;23.20;75.00
29041;DHT22;16129;50.836;4.380;2022-07-29T07:18:27;23.20;75.00
29041;DHT22;16129;50.836;4.380;2022-07-29T07:20:53;23.20;74.90
29041;DHT22;16129;50.836;4.380;2022-07-29T07:23:18;23.20;74.90
29041;DHT22;16129;50.836;4.380;2022-07-29T07:25:44;23.20;74.60
29041;DHT22;16129;50.836;4.380;2022-07-29T07:28:10;23.20;74.50
29041;DHT22;16129;50.836;4.380;2022-07-29T07:30:35;23.20;74.40
29041;DHT22;16129;50.836;4.380;2022-07-29T07:33:01;23.20;74.70
29041;DHT22;16129;50.836;4.380;2022-07-29T07:35:26;23.00;75.10
29041;DHT22;16129;50.836;4.380;2022-07-29T07:37:53;22.80;76.00
29041;DHT22;16129;50.836;4.380;2022-07-29T07:40:18;22.60;76.60
29041;DHT22;16129;50.836;4.380;2022-07-29T07:42:44;22.60;76.70
29041;DHT22;16129;50.836;4.380;2022-07-29T07:45:10;22.70;76.80
29041;DHT22;16129;50.836;4.380;2022-07-29T07:47:36;22.80;76.50
29041;DHT22;16129;50.836;4.380;2022-07-29T07:50:02;23.00;76.20
29041;DHT22;16129;50.836;4.380;2022-07-29T07:52:28;23.00;75.80
29041;DHT22;16129;50.836;4.380;2022-07-29T07:54:53;22.90;75.90
29041;DHT22;16129;50.836;4.380;2022-07-29T07:57:19;22.90;76.30
29041;DHT22;16129;50.836;4.380;2022-07-29T07:59:44;23.00;76.00
29041;DHT22;16129;50.836;4.380;2022-07-29T08:02:12;23.10;75.90
29041;DHT22;16129;50.836;4.380;2022-07-29T08:04:37;23.20;75.60
29041;DHT22;16129;50.836;4.380;2022-07-29T08:07:05;23.30;75.50
29041;DHT22;16129;50.836;4.380;2022-07-29T08:09:31;23.50;75.30
29041;DHT22;16129;50.836;4.380;2022-07-29T08:11:57;23.50;75.10
29041;DHT22;16129;50.836;4.380;2022-07-29T08:14:23;23.60;74.70
29041;DHT22;16129;50.836;4.380;2022-07-29T08:16:48;23.70;74.70
29041;DHT22;16129;50.836;4.380;2022-07-29T08:19:14;23.80;74.60
29041;DHT22;16129;50.836;4.380;2022-07-29T08:21:39;23.80;74.50
29041;DHT22;16129;50.836;4.380;2022-07-29T08:24:05;23.80;74.60
29041;DHT22;16129;50.836;4.380;2022-07-29T08:26:49;23.80;74.40
29041;DHT22;16129;50.836;4.380;2022-07-29T08:29:15;23.90;73.80
29041;DHT22;16129;50.836;4.380;2022-07-29T08:31:41;23.90;73.90
29041;DHT22;16129;50.836;4.380;2022-07-29T08:34:07;24.00;74.20
29041;DHT22;16129;50.836;4.380;2022-07-29T08:36:32;24.10;73.70
29041;DHT22;16129;50.836;4.380;2022-07-29T08:38:58;24.10;73.50
29041;DHT22;16129;50.836;4.380;2022-07-29T08:41:24;24.20;73.50
29041;DHT22;16129;50.836;4.380;2022-07-29T08:43:50;24.40;73.00
29041;DHT22;16129;50.836;4.380;2022-07-29T08:46:17;24.40;72.50
29041;DHT22;16129;50.836;4.380;2022-07-29T08:48:43;24.40;72.60
29041;DHT22;16129;50.836;4.380;2022-07-29T08:51:08;24.40;72.00
29041;DHT22;16129;50.836;4.380;2022-07-29T08:53:37;24.60;71.90
29041;DHT22;16129;50.836;4.380;2022-07-29T08:56:06;24.60;71.70
29041;DHT22;16129;50.836;4.380;2022-07-29T08:58:32;24.80;71.90
29041;DHT22;16129;50.836;4.380;2022-07-29T09:00:57;24.80;71.30
29041;DHT22;16129;50.836;4.380;2022-07-29T09:03:31;25.00;70.80
29041;DHT22;16129;50.836;4.380;2022-07-29T09:06:00;25.10;70.50
29041;DHT22;16129;50.836;4.380;2022-07-29T09:08:27;25.20;70.50
29041;DHT22;16129;50.836;4.380;2022-07-29T09:10:53;25.20;70.30
29041;DHT22;16129;50.836;4.380;2022-07-29T09:13:21;25.20;70.30
29041;DHT22;16129;50.836;4.380;2022-07-29T09:15:47;25.40;69.80
29041;DHT22;16129;50.836;4.380;2022-07-29T09:18:12;25.20;69.70
29041;DHT22;16129;50.836;4.380;2022-07-29T09:20:57;25.30;68.90
29041;DHT22;16129;50.836;4.380;2022-07-29T09:23:59;25.40;68.90
29041;DHT22;16129;50.836;4.380;2022-07-29T09:26:27;25.60;68.70
29041;DHT22;16129;50.836;4.380;2022-07-29T09:28:52;25.70;68.10
29041;DHT22;16129;50.836;4.380;2022-07-29T09:31:18;25.80;67.00
29041;DHT22;16129;50.836;4.380;2022-07-29T09:33:51;26.00;66.70
29041;DHT22;16129;50.836;4.380;2022-07-29T09:36:17;26.20;66.90
29041;DHT22;16129;50.836;4.380;2022-07-29T09:38:42;26.30;65.90
29041;DHT22;16129;50.836;4.380;2022-07-29T09:41:07;26.40;66.10
29041;DHT22;16129;50.836;4.380;2022-07-29T09:43:35;26.50;65.80
29041;DHT22;16129;50.836;4.380;2022-07-29T09:46:10;26.50;65.70
29041;DHT22;16129;50.836;4.380;2022-07-29T09:48:36;26.60;65.50
29041;DHT22;16129;50.836;4.380;2022-07-29T09:51:02;26.60;64.80
29041;DHT22;16129;50.836;4.380;2022-07-29T09:53:34;26.60;64.60
29041;DHT22;16129;50.836;4.380;2022-07-29T09:56:01;26.90;64.30
29041;DHT22;16129;50.836;4.380;2022-07-29T09:58:27;27.20;62.90
29041;DHT22;16129;50.836;4.380;2022-07-29T10:00:53;27.40;62.70
29041;DHT22;16129;50.836;4.380;2022-07-29T10:03:20;27.60;62.70
29041;DHT22;16129;50.836;4.380;2022-07-29T10:05:48;27.60;62.50
29041;DHT22;16129;50.836;4.380;2022-07-29T10:08:28;27.70;62.20
29041;DHT22;16129;50.836;4.380;2022-07-29T10:11:02;27.90;61.50
29041;DHT22;16129;50.836;4.380;2022-07-29T10:13:33;28.10;61.30
29041;DHT22;16129;50.836;4.380;2022-07-29T10:15:58;28.00;60.60
29041;DHT22;16129;50.836;4.380;2022-07-29T10:18:24;28.10;60.40
29041;DHT22;16129;50.836;4.380;2022-07-29T10:20:49;28.10;60.70
29041;DHT22;16129;50.836;4.380;2022-07-29T10:23:15;28.20;59.70
29041;DHT22;16129;50.836;4.380;2022-07-29T10:25:41;28.50;59.90
29041;DHT22;16129;50.836;4.380;2022-07-29T10:28:06;28.70;59.00
29041;DHT22;16129;50.836;4.380;2022-07-29T10:30:32;29.00;58.40
29041;DHT22;16129;50.836;4.380;2022-07-29T10:43:41;30.20;55.20
29041;DHT22;16129;50.836;4.380;2022-07-29T10:46:07;30.20;55.50
29041;DHT22;16129;50.836;4.380;2022-07-29T10:48:33;30.30;55.10
29041;DHT22;16129;50.836;4.380;2022-07-29T10:56:22;30.30;54.80
29041;DHT22;16129;50.836;4.380;2022-07-29T10:59:15;30.50;54.20
29041;DHT22;16129;50.836;4.380;2022-07-29T11:01:33;30.60;54.30
29041;DHT22;16129;50.836;4.380;2022-07-29T11:03:59;30.70;53.80
29041;DHT22;16129;50.836;4.380;2022-07-29T11:06:24;30.70;53.70
29041;DHT22;16129;50.836;4.380;2022-07-29T11:09:17;30.90;53.90
29041;DHT22;16129;50.836;4.380;2022-07-29T11:11:43;31.00;53.00
29041;DHT22;16129;50.836;4.380;2022-07-29T11:14:09;31.20;52.20
29041;DHT22;16129;50.836;4.380;2022-07-29T11:19:19;31.80;50.70
29041;DHT22;16129;50.836;4.380;2022-07-29T11:21:45;32.00;50.30
29041;DHT22;16129;50.836;4.380;2022-07-29T11:24:16;32.10;49.90
29041;DHT22;16129;50.836;4.380;2022-07-29T11:26:42;32.30;50.00
29041;DHT22;16129;50.836;4.380;2022-07-29T11:31:40;32.50;49.70
29041;DHT22;16129;50.836;4.380;2022-07-29T11:34:23;32.70;50.00
29041;DHT22;16129;50.836;4.380;2022-07-29T11:42:36;33.00;48.80
29041;DHT22;16129;50.836;4.380;2022-07-29T11:45:07;33.00;48.40
29041;DHT22;16129;50.836;4.380;2022-07-29T11:47:34;33.00;47.80
29041;DHT22;16129;50.836;4.380;2022-07-29T11:50:02;33.10;47.70
29041;DHT22;16129;50.836;4.380;2022-07-29T11:52:34;33.10;47.90
29041;DHT22;16129;50.836;4.380;2022-07-29T11:55:04;33.10;47.60
29041;DHT22;16129;50.836;4.380;2022-07-29T11:57:30;33.30;47.20
29041;DHT22;16129;50.836;4.380;2022-07-29T11:59:55;33.70;46.90
29041;DHT22;16129;50.836;4.380;2022-07-29T12:02:22;33.80;46.40
29041;DHT22;16129;50.836;4.380;2022-07-29T12:07:13;34.20;45.80
29041;DHT22;16129;50.836;4.380;2022-07-29T12:09:39;34.20;45.90
29041;DHT22;16129;50.836;4.380;2022-07-29T12:12:05;34.10;45.90
29041;DHT22;16129;50.836;4.380;2022-07-29T12:14:31;34.10;45.90
29041;DHT22;16129;50.836;4.380;2022-07-29T12:16:57;34.20;45.50
29041;DHT22;16129;50.836;4.380;2022-07-29T12:19:23;34.50;45.10
29041;DHT22;16129;50.836;4.380;2022-07-29T12:21:53;35.10;44.30
29041;DHT22;16129;50.836;4.380;2022-07-29T12:24:19;35.50;43.40
29041;DHT22;16129;50.836;4.380;2022-07-29T12:26:50;36.30;42.80
29041;DHT22;16129;50.836;4.380;2022-07-29T12:29:16;37.10;41.90
29041;DHT22;16129;50.836;4.380;2022-07-29T12:31:42;37.80;40.60
29041;DHT22;16129;50.836;4.380;2022-07-29T12:34:08;37.90;40.60
29041;DHT22;16129;50.836;4.380;2022-07-29T12:36:34;37.40;40.60
29041;DHT22;16129;50.836;4.380;2022-07-29T12:39:00;36.70;41.50
29041;DHT22;16129;50.836;4.380;2022-07-29T12:41:27;36.00;42.00
29041;DHT22;16129;50.836;4.380;2022-07-29T12:43:53;35.20;42.60
29041;DHT22;16129;50.836;4.380;2022-07-29T12:46:19;35.40;42.80
29041;DHT22;16129;50.836;4.380;2022-07-29T12:48:45;35.80;42.10
29041;DHT22;16129;50.836;4.380;2022-07-29T12:51:14;35.80;41.80
29041;DHT22;16129;50.836;4.380;2022-07-29T12:54:00;36.70;41.20
29041;DHT22;16129;50.836;4.380;2022-07-29T12:56:26;38.00;40.60
29041;DHT22;16129;50.836;4.380;2022-07-29T12:58:52;38.50;39.70
29041;DHT22;16129;50.836;4.380;2022-07-29T13:01:18;39.60;39.00
29041;DHT22;16129;50.836;4.380;2022-07-29T13:03:45;39.90;37.90
29041;DHT22;16129;50.836;4.380;2022-07-29T13:09:06;39.00;38.70
29041;DHT22;16129;50.836;4.380;2022-07-29T13:11:42;38.90;38.60
29041;DHT22;16129;50.836;4.380;2022-07-29T13:14:09;38.00;39.50
29041;DHT22;16129;50.836;4.380;2022-07-29T13:16:36;37.00;39.90
29041;DHT22;16129;50.836;4.380;2022-07-29T13:19:11;36.20;40.80
29041;DHT22;16129;50.836;4.380;2022-07-29T13:21:38;35.40;41.50
29041;DHT22;16129;50.836;4.380;2022-07-29T13:24:07;35.10;42.90
29041;DHT22;16129;50.836;4.380;2022-07-29T13:26:33;35.00;42.60
29041;DHT22;16129;50.836;4.380;2022-07-29T13:28:58;34.60;43.10
29041;DHT22;16129;50.836;4.380;2022-07-29T13:31:24;34.30;43.40
29041;DHT22;16129;50.836;4.380;2022-07-29T13:33:49;34.00;44.30
29041;DHT22;16129;50.836;4.380;2022-07-29T13:36:15;34.70;43.50
29041;DHT22;16129;50.836;4.380;2022-07-29T13:38:41;36.30;42.00
29041;DHT22;16129;50.836;4.380;2022-07-29T13:41:07;38.00;40.00
29041;DHT22;16129;50.836;4.380;2022-07-29T13:43:32;38.90;38.60
29041;DHT22;16129;50.836;4.380;2022-07-29T13:45:58;39.10;38.00
29041;DHT22;16129;50.836;4.380;2022-07-29T13:48:23;40.10;38.10
29041;DHT22;16129;50.836;4.380;2022-07-29T13:50:49;41.00;36.60
29041;DHT22;16129;50.836;4.380;2022-07-29T13:53:14;41.80;35.70
29041;DHT22;16129;50.836;4.380;2022-07-29T13:55:40;42.30;35.30
29041;DHT22;16129;50.836;4.380;2022-07-29T13:58:05;43.10;34.50
29041;DHT22;16129;50.836;4.380;2022-07-29T14:00:31;42.90;34.00
29041;DHT22;16129;50.836;4.380;2022-07-29T14:02:56;42.60;34.50
29041;DHT22;16129;50.836;4.380;2022-07-29T14:05:22;42.90;34.50
29041;DHT22;16129;50.836;4.380;2022-07-29T14:07:48;43.70;33.60
29041;DHT22;16129;50.836;4.380;2022-07-29T14:10:13;44.30;32.90
29041;DHT22;16129;50.836;4.380;2022-07-29T14:12:39;44.40;32.10
29041;DHT22;16129;50.836;4.380;2022-07-29T14:15:07;43.80;32.40
29041;DHT22;16129;50.836;4.380;2022-07-29T14:17:32;42.60;33.00
29041;DHT22;16129;50.836;4.380;2022-07-29T14:19:58;42.40;33.60
29041;DHT22;16129;50.836;4.380;2022-07-29T14:22:23;43.30;32.80
29041;DHT22;16129;50.836;4.380;2022-07-29T14:24:50;43.20;31.90
29041;DHT22;16129;50.836;4.380;2022-07-29T14:27:15;41.90;32.60
29041;DHT22;16129;50.836;4.380;2022-07-29T14:29:41;40.40;33.80
29041;DHT22;16129;50.836;4.380;2022-07-29T14:32:07;39.00;35.20
29041;DHT22;16129;50.836;4.380;2022-07-29T14:34:33;38.20;36.50
29041;DHT22;16129;50.836;4.380;2022-07-29T14:36:59;37.60;37.60
29041;DHT22;16129;50.836;4.380;2022-07-29T14:39:24;37.10;38.40
29041;DHT22;16129;50.836;4.380;2022-07-29T14:41:51;36.50;38.90
29041;DHT22;16129;50.836;4.380;2022-07-29T14:44:17;35.80;40.00
29041;DHT22;16129;50.836;4.380;2022-07-29T14:46:43;35.40;40.20
29041;DHT22;16129;50.836;4.380;2022-07-29T14:49:09;35.80;39.80
29041;DHT22;16129;50.836;4.380;2022-07-29T14:51:34;37.50;38.00
29041;DHT22;16129;50.836;4.380;2022-07-29T14:54:00;39.10;36.10
29041;DHT22;16129;50.836;4.380;2022-07-29T14:56:25;38.80;36.00
29041;DHT22;16129;50.836;4.380;2022-07-29T14:58:52;37.90;37.00
29041;DHT22;16129;50.836;4.380;2022-07-29T15:01:17;37.10;38.20
29041;DHT22;16129;50.836;4.380;2022-07-29T15:03:43;37.00;39.10
29041;DHT22;16129;50.836;4.380;2022-07-29T15:06:08;38.50;37.00
29041;DHT22;16129;50.836;4.380;2022-07-29T15:08:34;40.30;35.60
29041;DHT22;16129;50.836;4.380;2022-07-29T15:10:59;39.60;35.70
29041;DHT22;16129;50.836;4.380;2022-07-29T15:13:26;38.60;36.70
29041;DHT22;16129;50.836;4.380;2022-07-29T15:15:51;37.60;37.80
29041;DHT22;16129;50.836;4.380;2022-07-29T15:18:17;37.70;38.00
29041;DHT22;16129;50.836;4.380;2022-07-29T15:20:42;39.80;36.90
29041;DHT22;16129;50.836;4.380;2022-07-29T15:23:10;42.20;34.60
29041;DHT22;16129;50.836;4.380;2022-07-29T15:25:37;43.70;33.10
29041;DHT22;16129;50.836;4.380;2022-07-29T15:28:03;44.60;32.50
29041;DHT22;16129;50.836;4.380;2022-07-29T15:30:32;44.20;32.40
29041;DHT22;16129;50.836;4.380;2022-07-29T15:32:58;44.10;32.60
29041;DHT22;16129;50.836;4.380;2022-07-29T15:35:24;44.30;31.50
29041;DHT22;16129;50.836;4.380;2022-07-29T15:37:49;44.40;31.60
29041;DHT22;16129;50.836;4.380;2022-07-29T15:40:15;44.40;31.40
29041;DHT22;16129;50.836;4.380;2022-07-29T15:42:40;44.60;31.20
29041;DHT22;16129;50.836;4.380;2022-07-29T15:45:06;44.90;30.70
29041;DHT22;16129;50.836;4.380;2022-07-29T15:47:32;44.90;30.80
29041;DHT22;16129;50.836;4.380;2022-07-29T15:49:59;44.80;30.30
29041;DHT22;16129;50.836;4.380;2022-07-29T15:52:25;44.40;30.50
29041;DHT22;16129;50.836;4.380;2022-07-29T15:54:50;43.50;30.90
29041;DHT22;16129;50.836;4.380;2022-07-29T15:57:16;43.30;31.00
29041;DHT22;16129;50.836;4.380;2022-07-29T15:59:41;43.30;30.80
29041;DHT22;16129;50.836;4.380;2022-07-29T16:02:07;43.00;31.30
29041;DHT22;16129;50.836;4.380;2022-07-29T16:04:32;42.70;31.80
29041;DHT22;16129;50.836;4.380;2022-07-29T16:06:58;42.70;31.70